Time;durP1;ratioP1;P1;durP2;ratioP2;P2;SDS_P1;SDS_P2;PMS_P1;PMS_P2;Temp;Humidity;BMP_temperature;BMP_pressure;BME280_temperature;BME280_humidity;BME280_pressure;Samples;Min_cycle;Max_cycle;Signal;HPM_P1;HPM_P2
2023/12/10 00:01:07;;;;;;;10.85;1.95;;;10.20;99.90;;;;;;5093650;28;20063;-89
2023/12/10 00:03:32;;;;;;;15.73;2.33;;;10.20;99.90;;;;;;5093280;28;20032;-89
2023/12/10 00:05:58;;;;;;;11.50;1.77;;;10.20;99.90;;;;;;5092897;28;20024;-89
2023/12/10 00:08:24;;;;;;;15.02;2.47;;;10.20;99.90;;;;;;5092969;28;20389;-89
2023/12/10 00:10:55;;;;;;;11.45;2.20;;;10.20;99.90;;;;;;5092843;28;20465;-89
2023/12/10 00:13:21;;;;;;;11.85;2.35;;;10.20;99.90;;;;;;5092291;28;20209;-90
2023/12/10 00:15:46;;;;;;;16.23;2.17;;;10.10;99.90;;;;;;5092749;28;20090;-90
2023/12/10 00:18:12;;;;;;;14.80;2.08;;;10.10;99.90;;;;;;5093510;28;20032;-89
2023/12/10 00:20:40;;;;;;;11.68;1.80;;;10.10;99.90;;;;;;5092589;28;20050;-90
2023/12/10 00:23:11;;;;;;;18.67;2.92;;;10.20;99.90;;;;;;5093138;28;20031;-89
2023/12/10 00:25:39;;;;;;;19.70;1.90;;;10.10;99.90;;;;;;5092583;28;20086;-90
2023/12/10 00:28:07;;;;;;;17.83;1.80;;;10.10;99.90;;;;;;5093269;28;20058;-90
2023/12/10 00:30:33;;;;;;;17.83;2.75;;;10.10;99.90;;;;;;5093029;28;20047;-90
2023/12/10 00:33:01;;;;;;;16.63;2.80;;;10.10;99.90;;;;;;5092689;28;20024;-90
2023/12/10 00:35:29;;;;;;;21.45;2.75;;;10.20;99.90;;;;;;5093915;28;20111;-90
2023/12/10 00:37:55;;;;;;;15.02;3.00;;;10.20;99.90;;;;;;5092411;28;20032;-90
2023/12/10 00:40:21;;;;;;;17.92;2.42;;;10.20;99.90;;;;;;5094099;28;20067;-90
2023/12/10 00:42:47;;;;;;;14.55;2.72;;;10.20;99.90;;;;;;5092534;28;20503;-90
2023/12/10 00:45:15;;;;;;;20.92;2.50;;;10.20;99.90;;;;;;5093924;28;20028;-89
2023/12/10 00:47:41;;;;;;;14.00;2.50;;;10.30;99.90;;;;;;5092161;28;20085;-90
2023/12/10 00:50:09;;;;;;;20.88;2.55;;;10.20;99.90;;;;;;5092651;28;20028;-89
2023/12/10 00:52:39;;;;;;;13.38;2.10;;;10.20;99.90;;;;;;5092816;28;20098;-90
2023/12/10 00:55:05;;;;;;;17.55;2.47;;;10.20;99.90;;;;;;5092921;28;20028;-90
2023/12/10 00:57:33;;;;;;;17.48;3.15;;;10.30;99.90;;;;;;5092823;28;20036;-90
2023/12/10 00:59:59;;;;;;;13.65;2.38;;;10.20;99.90;;;;;;5092258;28;20081;-90
2023/12/10 01:02:25;;;;;;;18.05;2.58;;;10.20;99.90;;;;;;5092990;28;20028;-89
2023/12/10 01:04:51;;;;;;;21.65;3.10;;;10.20;99.90;;;;;;5093381;28;20110;-89
2023/12/10 01:07:17;;;;;;;19.35;2.70;;;10.20;99.90;;;;;;5092708;28;20066;-89
2023/12/10 01:09:43;;;;;;;17.67;2.97;;;10.20;99.90;;;;;;5092005;28;20032;-89
2023/12/10 01:12:08;;;;;;;17.85;3.10;;;10.20;99.90;;;;;;5093232;28;20035;-90
2023/12/10 01:14:36;;;;;;;18.60;2.97;;;10.20;99.90;;;;;;5092403;28;20031;-89
2023/12/10 01:17:02;;;;;;;22.75;3.13;;;10.20;99.90;;;;;;5091986;28;20028;-89
2023/12/10 01:19:30;;;;;;;26.17;3.28;;;10.20;99.90;;;;;;5093529;28;20062;-89
2023/12/10 01:21:55;;;;;;;18.38;3.00;;;10.20;99.90;;;;;;5092116;28;20027;-89
2023/12/10 01:24:21;;;;;;;20.55;2.60;;;10.20;99.90;;;;;;5094339;28;20027;-89
2023/12/10 01:26:47;;;;;;;20.13;2.80;;;10.10;99.90;;;;;;5095814;28;20099;-89
2023/12/10 01:29:15;;;;;;;21.05;2.47;;;10.10;99.90;;;;;;5096175;28;20481;-89
2023/12/10 01:31:40;;;;;;;28.33;3.55;;;10.20;99.90;;;;;;5095768;28;20114;-89
2023/12/10 01:34:06;;;;;;;20.08;3.40;;;10.10;99.90;;;;;;5096181;28;20044;-89
2023/12/10 01:36:32;;;;;;;23.00;2.70;;;10.10;99.90;;;;;;5095899;28;20464;-89
2023/12/10 01:38:58;;;;;;;24.10;3.38;;;10.20;99.90;;;;;;5095291;28;20028;-89
2023/12/10 01:41:25;;;;;;;20.02;2.72;;;10.10;99.90;;;;;;5095600;28;20028;-89
2023/12/10 01:43:51;;;;;;;15.52;2.35;;;10.10;99.90;;;;;;5096417;28;20036;-89
2023/12/10 01:46:17;;;;;;;14.20;2.63;;;10.10;99.90;;;;;;5097407;28;20024;-88
2023/12/10 01:48:44;;;;;;;15.55;2.25;;;10.00;99.90;;;;;;5101671;28;20035;-90
2023/12/10 01:51:10;;;;;;;14.02;2.25;;;9.90;99.90;;;;;;5105328;28;20028;-89
2023/12/10 01:53:38;;;;;;;8.90;1.63;;;9.70;99.90;;;;;;5106513;28;20028;-89
2023/12/10 01:56:06;;;;;;;7.75;1.35;;;9.60;99.90;;;;;;5099209;28;20031;-88
2023/12/10 01:58:32;;;;;;;12.43;1.75;;;9.40;99.90;;;;;;5102592;28;20080;-89
2023/12/10 02:01:00;;;;;;;14.18;1.60;;;9.30;99.90;;;;;;5100641;28;20069;-89
2023/12/10 02:03:25;;;;;;;14.02;1.38;;;9.30;99.90;;;;;;5102123;28;20069;-88
2023/12/10 02:05:51;;;;;;;6.50;1.70;;;9.20;99.90;;;;;;5101418;28;20089;-89
2023/12/10 02:08:17;;;;;;;5.47;1.20;;;9.10;99.90;;;;;;5101091;28;20032;-89
2023/12/10 02:10:43;;;;;;;5.68;1.50;;;9.10;99.90;;;;;;5102463;28;20058;-89
2023/12/10 02:13:09;;;;;;;12.27;1.70;;;9.00;99.90;;;;;;5102148;28;20384;-89
2023/12/10 02:15:34;;;;;;;8.60;1.20;;;8.90;99.90;;;;;;5102720;28;20377;-88
2023/12/10 02:18:00;;;;;;;4.32;1.10;;;8.90;99.90;;;;;;5099719;28;20031;-89
2023/12/10 02:20:26;;;;;;;10.52;1.30;;;8.90;99.90;;;;;;5100402;28;20024;-88
2023/12/10 02:23:33;;;;;;;6.13;1.10;;;8.80;99.90;;;;;;5094681;28;20484;-88
2023/12/10 02:25:59;;;;;;;11.57;1.65;;;8.80;99.90;;;;;;5087350;28;20469;-88
2023/12/10 02:28:25;;;;;;;12.57;1.90;;;8.80;99.90;;;;;;5095068;28;20032;-89
2023/12/10 02:30:51;;;;;;;12.05;1.60;;;8.80;99.90;;;;;;5094429;28;20480;-88
2023/12/10 02:33:16;;;;;;;16.17;2.22;;;8.80;99.90;;;;;;5095661;28;20026;-88
2023/12/10 02:35:42;;;;;;;8.35;1.45;;;8.80;99.90;;;;;;5094568;28;20483;-88
2023/12/10 02:38:08;;;;;;;8.07;1.65;;;8.80;99.90;;;;;;5094326;28;20032;-89
2023/12/10 02:40:33;;;;;;;14.13;1.67;;;8.80;99.90;;;;;;5095784;28;20067;-88
2023/12/10 02:43:00;;;;;;;14.63;1.70;;;8.80;99.90;;;;;;5095385;28;20028;-88
2023/12/10 02:45:26;;;;;;;11.10;2.60;;;8.80;99.90;;;;;;5094543;28;20431;-88
2023/12/10 02:47:51;;;;;;;16.20;2.05;;;8.90;99.90;;;;;;5094069;28;20030;-89
2023/12/10 02:50:18;;;;;;;15.75;2.03;;;8.90;99.90;;;;;;5094346;28;20093;-88
2023/12/10 02:52:44;;;;;;;16.88;2.35;;;8.90;99.90;;;;;;5094616;28;20024;-88
2023/12/10 02:55:09;;;;;;;13.05;2.38;;;8.90;99.90;;;;;;5093974;28;20020;-90
2023/12/10 02:57:35;;;;;;;14.48;2.97;;;9.00;99.90;;;;;;5094613;28;20027;-89
2023/12/10 03:00:01;;;;;;;12.40;2.30;;;9.00;99.90;;;;;;5094003;28;20462;-89
2023/12/10 03:02:27;;;;;;;19.88;2.58;;;9.00;99.90;;;;;;5094449;28;20028;-88
2023/12/10 03:04:52;;;;;;;13.38;2.88;;;9.10;99.90;;;;;;5093733;28;20074;-88
2023/12/10 03:07:18;;;;;;;14.30;2.88;;;9.10;99.90;;;;;;5095197;28;20119;-89
2023/12/10 03:09:44;;;;;;;16.13;2.58;;;9.10;99.90;;;;;;5093930;28;20032;-88
2023/12/10 03:12:10;;;;;;;15.88;2.10;;;9.10;99.90;;;;;;5093648;28;20065;-88
2023/12/10 03:14:35;;;;;;;14.90;2.63;;;9.20;99.90;;;;;;5094125;28;20028;-88
2023/12/10 03:17:01;;;;;;;20.08;2.40;;;9.20;99.90;;;;;;5093622;28;20028;-89
2023/12/10 03:19:27;;;;;;;13.50;2.33;;;9.20;99.90;;;;;;5094193;28;20032;-88
2023/12/10 03:21:52;;;;;;;22.15;2.83;;;9.20;99.90;;;;;;5093945;28;20082;-89
2023/12/10 03:24:18;;;;;;;13.35;2.20;;;9.30;99.90;;;;;;5093861;28;20469;-89
2023/12/10 03:26:43;;;;;;;21.92;2.17;;;9.30;99.90;;;;;;5093705;28;20085;-89
2023/12/10 03:29:09;;;;;;;17.13;2.20;;;9.30;99.90;;;;;;5093336;28;20032;-88
2023/12/10 03:31:35;;;;;;;21.63;3.20;;;9.30;99.90;;;;;;5094895;28;20074;-89
2023/12/10 03:34:00;;;;;;;15.68;2.53;;;9.30;99.90;;;;;;5094429;28;20028;-90
2023/12/10 03:36:26;;;;;;;11.43;2.65;;;9.40;99.90;;;;;;5093846;28;20051;-90
2023/12/10 03:38:52;;;;;;;14.50;2.20;;;9.40;99.90;;;;;;5093180;28;20036;-90
2023/12/10 03:41:17;;;;;;;13.85;2.55;;;9.40;99.90;;;;;;5093277;28;20464;-90
2023/12/10 03:43:43;;;;;;;11.40;2.58;;;9.40;99.90;;;;;;5093563;28;20036;-89
2023/12/10 03:46:09;;;;;;;14.75;2.20;;;9.40;99.90;;;;;;5093377;28;20078;-90
2023/12/10 03:48:34;;;;;;;14.80;2.50;;;9.50;99.90;;;;;;5092521;28;20385;-89
2023/12/10 03:51:00;;;;;;;10.30;2.00;;;9.50;99.90;;;;;;5094193;28;20032;-89
2023/12/10 03:53:25;;;;;;;14.50;2.10;;;9.50;99.90;;;;;;5093598;28;20032;-89
2023/12/10 03:55:51;;;;;;;18.58;2.47;;;9.50;99.90;;;;;;5092950;28;20469;-89
2023/12/10 03:58:16;;;;;;;16.40;2.05;;;9.50;99.90;;;;;;5093451;28;20032;-89
2023/12/10 04:00:42;;;;;;;13.35;2.58;;;9.50;99.90;;;;;;5093075;28;20115;-89
2023/12/10 04:03:08;;;;;;;12.32;2.38;;;9.50;99.90;;;;;;5092898;28;20372;-89
2023/12/10 04:05:34;;;;;;;16.67;2.40;;;9.50;99.90;;;;;;5093308;28;20039;-89
2023/12/10 04:07:59;;;;;;;13.73;2.05;;;9.50;99.90;;;;;;5093571;28;20102;-89
2023/12/10 04:10:25;;;;;;;13.10;2.30;;;9.50;99.90;;;;;;5093234;28;20035;-89
2023/12/10 04:12:51;;;;;;;17.52;2.13;;;9.50;99.90;;;;;;5092371;28;20031;-89
2023/12/10 04:15:17;;;;;;;8.90;1.77;;;9.50;99.90;;;;;;5093252;28;20032;-89
2023/12/10 04:17:43;;;;;;;11.63;1.88;;;9.50;99.90;;;;;;5092976;28;20032;-90
2023/12/10 04:20:09;;;;;;;14.45;2.00;;;9.50;99.90;;;;;;5092575;28;20024;-89
2023/12/10 04:22:35;;;;;;;8.60;1.90;;;9.50;99.90;;;;;;5093010;28;20034;-89
2023/12/10 04:25:01;;;;;;;12.20;2.00;;;9.50;99.90;;;;;;5092466;28;20028;-89
2023/12/10 04:27:26;;;;;;;10.77;2.20;;;9.50;99.90;;;;;;5093067;28;20068;-89
2023/12/10 04:29:52;;;;;;;15.10;2.67;;;9.50;99.90;;;;;;5092734;28;20052;-90
2023/12/10 04:32:18;;;;;;;14.80;1.85;;;9.50;99.90;;;;;;5092959;28;20027;-89
2023/12/10 04:34:44;;;;;;;17.70;2.00;;;9.50;99.90;;;;;;5092905;28;20024;-89
2023/12/10 04:37:09;;;;;;;18.88;2.30;;;9.50;99.90;;;;;;5092411;28;20024;-88
2023/12/10 04:39:35;;;;;;;14.63;1.92;;;9.50;99.90;;;;;;5092442;28;20079;-88
2023/12/10 04:42:00;;;;;;;13.65;2.03;;;9.50;99.90;;;;;;5092481;28;20118;-89
2023/12/10 04:44:26;;;;;;;8.75;1.90;;;9.50;99.90;;;;;;5093901;28;20454;-88
2023/12/10 04:46:52;;;;;;;11.85;1.98;;;9.40;99.90;;;;;;5093249;28;20032;-90
2023/12/10 04:49:17;;;;;;;14.75;2.10;;;9.50;99.90;;;;;;5092681;28;20028;-89
2023/12/10 04:51:43;;;;;;;13.23;1.95;;;9.50;99.90;;;;;;5093891;28;20031;-89
2023/12/10 04:54:08;;;;;;;14.65;2.50;;;9.50;99.90;;;;;;5092394;28;20028;-89
2023/12/10 04:56:34;;;;;;;14.13;2.17;;;9.50;99.90;;;;;;5092850;28;20031;-90
2023/12/10 04:59:00;;;;;;;13.98;1.67;;;9.50;99.90;;;;;;5093749;28;20043;-91
2023/12/10 05:01:25;;;;;;;9.88;2.08;;;9.50;99.90;;;;;;5096527;28;20087;-89
2023/12/10 05:03:51;;;;;;;9.57;1.90;;;9.50;99.90;;;;;;5096160;28;20038;-89
2023/12/10 05:06:17;;;;;;;12.55;2.20;;;9.50;99.90;;;;;;5097298;28;20445;-90
2023/12/10 05:08:42;;;;;;;8.52;1.90;;;9.40;99.90;;;;;;5097318;28;20024;-90
2023/12/10 05:11:08;;;;;;;10.85;1.90;;;9.40;99.90;;;;;;5095748;28;20428;-89
2023/12/10 05:13:35;;;;;;;10.23;1.70;;;9.40;99.90;;;;;;5096232;28;20518;-88
2023/12/10 05:16:01;;;;;;;8.75;1.85;;;9.40;99.90;;;;;;5095809;28;20024;-89
2023/12/10 05:18:26;;;;;;;18.83;2.13;;;9.40;99.90;;;;;;5096102;28;20119;-89
2023/12/10 05:20:52;;;;;;;13.68;1.67;;;9.40;99.90;;;;;;5096200;28;20028;-89
2023/12/10 05:23:18;;;;;;;11.23;1.92;;;9.40;99.90;;;;;;5095856;28;20081;-90
2023/12/10 05:25:44;;;;;;;9.35;1.65;;;9.40;99.90;;;;;;5096025;28;20474;-89
2023/12/10 05:28:09;;;;;;;16.13;2.05;;;9.40;99.90;;;;;;5096562;28;20028;-89
2023/12/10 05:30:35;;;;;;;15.23;2.00;;;9.40;99.90;;;;;;5095990;28;20483;-90
2023/12/10 05:33:01;;;;;;;11.55;1.77;;;9.40;99.90;;;;;;5095538;28;20046;-89
2023/12/10 05:35:27;;;;;;;9.40;1.77;;;9.40;99.90;;;;;;5096902;28;20510;-90
2023/12/10 05:37:52;;;;;;;11.32;2.00;;;9.40;99.90;;;;;;5095981;28;20474;-89
2023/12/10 05:40:18;;;;;;;12.32;2.25;;;9.50;99.90;;;;;;5095098;28;20070;-90
2023/12/10 05:42:43;;;;;;;13.98;2.08;;;9.50;99.90;;;;;;5095846;28;20049;-90
2023/12/10 05:45:09;;;;;;;14.35;2.47;;;9.50;99.90;;;;;;5095133;28;20473;-89
2023/12/10 05:47:35;;;;;;;13.15;2.30;;;9.50;99.90;;;;;;5095557;28;20097;-90
2023/12/10 05:50:00;;;;;;;13.70;1.85;;;9.50;99.90;;;;;;5095096;28;20055;-90
2023/12/10 05:52:26;;;;;;;10.07;1.80;;;9.50;99.90;;;;;;5095491;28;20029;-89
2023/12/10 05:54:52;;;;;;;7.97;1.50;;;9.50;99.90;;;;;;5095734;28;20054;-88
2023/12/10 05:57:17;;;;;;;15.15;2.20;;;9.50;99.90;;;;;;5095054;28;20055;-88
2023/12/10 05:59:43;;;;;;;11.18;1.85;;;9.50;99.90;;;;;;5095277;28;20027;-89
2023/12/10 06:02:09;;;;;;;8.35;1.77;;;9.50;99.90;;;;;;5095130;28;20454;-89
2023/12/10 06:04:34;;;;;;;14.60;1.80;;;9.50;99.90;;;;;;5095543;28;20043;-89
2023/12/10 06:07:00;;;;;;;13.10;1.65;;;9.50;99.90;;;;;;5094912;28;20430;-89
2023/12/10 06:09:26;;;;;;;13.25;1.60;;;9.50;99.90;;;;;;5094877;28;20618;-89
2023/12/10 06:11:53;;;;;;;11.20;1.95;;;9.50;99.90;;;;;;5095158;28;20043;-88
2023/12/10 06:14:19;;;;;;;11.07;1.92;;;9.50;99.90;;;;;;5094635;28;20086;-89
2023/12/10 06:16:44;;;;;;;12.10;1.50;;;9.50;99.90;;;;;;5094757;28;20020;-88
2023/12/10 06:19:10;;;;;;;12.43;1.55;;;9.50;99.90;;;;;;5094401;28;20024;-89
2023/12/10 06:21:37;;;;;;;13.85;1.90;;;9.50;99.90;;;;;;5095007;28;20024;-89
2023/12/10 06:24:04;;;;;;;14.43;2.03;;;9.50;99.90;;;;;;5094629;28;20472;-89
2023/12/10 06:26:30;;;;;;;10.15;1.42;;;9.50;99.90;;;;;;5095291;28;20461;-89
2023/12/10 06:28:55;;;;;;;16.10;2.42;;;9.50;99.90;;;;;;5095259;28;20028;-89
2023/12/10 06:31:21;;;;;;;13.95;1.65;;;9.50;99.90;;;;;;5094277;28;20039;-89
2023/12/10 06:33:46;;;;;;;10.35;1.63;;;9.50;99.90;;;;;;5094725;28;20642;-89
2023/12/10 06:36:12;;;;;;;12.70;1.98;;;9.40;99.90;;;;;;5094398;28;20088;-89
2023/12/10 06:38:38;;;;;;;10.40;1.40;;;9.40;99.90;;;;;;5095730;28;20433;-88
2023/12/10 06:41:06;;;;;;;10.52;1.50;;;9.40;99.90;;;;;;5095302;28;20485;-89
2023/12/10 06:43:32;;;;;;;12.38;1.80;;;9.40;99.90;;;;;;5094477;28;20132;-90
2023/12/10 06:45:58;;;;;;;16.95;2.38;;;9.40;99.90;;;;;;5095590;28;20110;-89
2023/12/10 06:48:25;;;;;;;10.55;1.70;;;9.40;99.90;;;;;;5095438;28;20038;-89
2023/12/10 06:50:51;;;;;;;14.60;2.45;;;9.40;99.90;;;;;;5094749;28;20059;-89
2023/12/10 06:53:16;;;;;;;11.73;2.20;;;9.50;99.90;;;;;;5095136;28;20032;-89
2023/12/10 06:55:42;;;;;;;11.23;1.70;;;9.50;99.90;;;;;;5094760;28;20036;-89
2023/12/10 06:58:08;;;;;;;18.13;2.58;;;9.40;99.90;;;;;;5093827;28;20032;-89
2023/12/10 07:00:33;;;;;;;13.55;1.75;;;9.40;99.90;;;;;;5094237;28;20372;-89
2023/12/10 07:02:59;;;;;;;8.27;2.13;;;9.40;99.90;;;;;;5094393;28;20043;-88
2023/12/10 07:05:24;;;;;;;17.60;2.60;;;9.40;99.90;;;;;;5094974;28;20024;-89
2023/12/10 07:07:50;;;;;;;11.40;1.70;;;9.40;99.90;;;;;;5094218;28;20506;-89
2023/12/10 07:10:16;;;;;;;12.25;1.67;;;9.40;99.90;;;;;;5093351;28;20381;-89
2023/12/10 07:12:41;;;;;;;10.65;1.50;;;9.40;99.90;;;;;;5094343;28;20032;-89
2023/12/10 07:15:07;;;;;;;8.13;1.45;;;9.40;99.90;;;;;;5094995;28;20070;-88
2023/12/10 07:17:35;;;;;;;11.60;1.90;;;9.40;99.90;;;;;;5094307;28;20131;-90
2023/12/10 07:20:00;;;;;;;15.95;1.80;;;9.40;99.90;;;;;;5094742;28;20024;-90
2023/12/10 07:22:26;;;;;;;9.98;1.88;;;9.40;99.90;;;;;;5094736;28;20028;-88
2023/12/10 07:24:52;;;;;;;12.57;2.00;;;9.40;99.90;;;;;;5094090;28;20031;-89
2023/12/10 07:27:17;;;;;;;16.98;2.25;;;9.50;99.90;;;;;;5093473;28;20035;-89
2023/12/10 07:29:43;;;;;;;14.02;2.03;;;9.40;99.90;;;;;;5093830;28;20465;-89
2023/12/10 07:32:09;;;;;;;11.60;1.83;;;9.40;99.90;;;;;;5092966;28;20020;-89
2023/12/10 07:34:34;;;;;;;12.05;1.77;;;9.50;99.90;;;;;;5093725;28;20020;-89
2023/12/10 07:37:00;;;;;;;10.48;1.88;;;9.50;99.90;;;;;;5093735;28;20042;-89
2023/12/10 07:39:25;;;;;;;9.27;1.40;;;9.50;99.90;;;;;;5092740;28;20047;-89
2023/12/10 07:41:51;;;;;;;14.73;2.20;;;9.50;99.90;;;;;;5094705;28;20043;-89
2023/12/10 07:44:17;;;;;;;9.60;1.58;;;9.50;99.90;;;;;;5093003;28;20097;-90
2023/12/10 07:46:43;;;;;;;8.52;1.55;;;9.50;99.90;;;;;;5093533;28;20059;-89
2023/12/10 07:49:08;;;;;;;13.90;2.17;;;9.40;99.90;;;;;;5093138;28;20476;-88
2023/12/10 07:51:34;;;;;;;8.05;1.80;;;9.40;99.90;;;;;;5093240;28;20043;-91
2023/12/10 07:54:00;;;;;;;12.00;1.70;;;9.40;99.90;;;;;;5093143;28;20024;-91
2023/12/10 07:56:27;;;;;;;7.75;1.70;;;9.50;99.90;;;;;;5092932;28;20496;-90
2023/12/10 07:58:52;;;;;;;10.82;1.33;;;9.40;99.90;;;;;;5094575;28;20020;-92
2023/12/10 08:01:18;;;;;;;16.05;1.80;;;9.50;99.90;;;;;;5093033;28;20377;-91
2023/12/10 08:03:44;;;;;;;13.25;2.05;;;9.50;99.90;;;;;;5094269;28;20473;-89
2023/12/10 08:06:09;;;;;;;7.70;1.85;;;9.50;99.90;;;;;;5092551;28;20020;-90
2023/12/10 08:08:35;;;;;;;13.48;1.58;;;9.50;99.90;;;;;;5094326;28;20023;-90
2023/12/10 08:11:03;;;;;;;10.80;1.70;;;9.50;99.90;;;;;;5094228;28;20043;-90
2023/12/10 08:13:29;;;;;;;11.45;1.75;;;9.60;99.90;;;;;;5093144;28;20024;-90
2023/12/10 08:15:54;;;;;;;9.85;2.15;;;9.60;99.90;;;;;;5093984;28;20028;-90
2023/12/10 08:18:20;;;;;;;11.75;2.33;;;9.60;99.90;;;;;;5092593;28;20114;-90
2023/12/10 08:20:46;;;;;;;11.18;1.92;;;9.60;99.90;;;;;;5093209;28;20475;-88
2023/12/10 08:23:11;;;;;;;13.07;2.08;;;9.60;99.90;;;;;;5092840;28;20028;-88
2023/12/10 08:25:37;;;;;;;14.10;1.80;;;9.60;99.90;;;;;;5094148;28;20021;-89
2023/12/10 08:28:03;;;;;;;15.63;1.88;;;9.60;99.90;;;;;;5092994;28;20028;-88
2023/12/10 08:30:28;;;;;;;10.60;1.60;;;9.60;99.90;;;;;;5092667;28;20054;-89
2023/12/10 08:32:54;;;;;;;11.30;1.77;;;9.60;99.90;;;;;;5093929;28;20070;-88
2023/12/10 08:35:19;;;;;;;10.10;1.75;;;9.60;99.90;;;;;;5096309;28;20046;-89
2023/12/10 08:37:45;;;;;;;12.75;2.03;;;9.60;99.90;;;;;;5096882;28;20027;-89
2023/12/10 08:40:11;;;;;;;11.90;1.80;;;9.60;99.90;;;;;;5096091;28;20052;-89
2023/12/10 08:42:36;;;;;;;14.93;2.28;;;9.60;99.90;;;;;;5097208;28;20084;-88
2023/12/10 08:45:02;;;;;;;9.50;1.73;;;9.60;99.90;;;;;;5097141;28;20465;-88
2023/12/10 08:47:28;;;;;;;12.77;1.50;;;9.60;99.90;;;;;;5097651;28;20028;-88
2023/12/10 08:49:54;;;;;;;12.48;1.92;;;9.70;99.90;;;;;;5097800;28;20461;-87
2023/12/10 08:52:21;;;;;;;13.30;1.90;;;9.70;99.90;;;;;;5097078;28;20035;-87
2023/12/10 08:54:46;;;;;;;12.20;1.73;;;9.70;99.90;;;;;;5096777;28;20024;-87
2023/12/10 08:57:13;;;;;;;12.90;2.20;;;9.80;99.90;;;;;;5097326;28;20119;-90
2023/12/10 08:59:39;;;;;;;12.88;2.00;;;9.80;99.90;;;;;;5097593;28;20365;-88
2023/12/10 09:02:04;;;;;;;7.82;1.80;;;9.80;99.90;;;;;;5096347;28;20024;-88
2023/12/10 09:04:30;;;;;;;13.32;1.45;;;9.80;99.90;;;;;;5096072;28;20074;-87
2023/12/10 09:06:56;;;;;;;12.68;1.83;;;9.90;99.90;;;;;;5097620;28;20032;-87
2023/12/10 09:09:21;;;;;;;10.98;2.08;;;9.80;99.90;;;;;;5095996;28;20484;-87
2023/12/10 09:11:47;;;;;;;10.95;1.92;;;9.90;99.90;;;;;;5097573;28;20085;-88
2023/12/10 09:14:13;;;;;;;13.85;1.40;;;9.90;99.90;;;;;;5095957;28;20025;-88
2023/12/10 09:16:39;;;;;;;12.88;1.92;;;9.90;99.90;;;;;;5096265;28;20027;-87
2023/12/10 09:19:05;;;;;;;10.65;1.85;;;9.90;99.90;;;;;;5097319;28;20034;-87
2023/12/10 09:21:30;;;;;;;9.27;1.58;;;9.90;99.90;;;;;;5096717;28;20024;-88
2023/12/10 09:23:56;;;;;;;13.20;1.73;;;9.90;99.90;;;;;;5096297;28;20518;-88
2023/12/10 09:26:22;;;;;;;7.82;1.60;;;9.90;99.90;;;;;;5095576;28;20053;-88
2023/12/10 09:28:47;;;;;;;14.02;1.90;;;10.00;99.90;;;;;;5095732;28;20032;-89
2023/12/10 09:31:13;;;;;;;14.55;2.13;;;10.00;99.90;;;;;;5095756;28;20036;-88
2023/12/10 09:33:39;;;;;;;12.07;1.95;;;10.00;99.90;;;;;;5096169;28;20058;-88
2023/12/10 09:36:04;;;;;;;10.65;1.45;;;10.00;99.90;;;;;;5095875;28;20050;-88
2023/12/10 09:38:30;;;;;;;13.48;2.15;;;10.00;99.90;;;;;;5095432;28;20046;-87
2023/12/10 09:40:56;;;;;;;13.13;1.75;;;10.10;99.90;;;;;;5095806;28;20429;-87
2023/12/10 09:43:22;;;;;;;9.98;1.85;;;10.10;99.90;;;;;;5094801;28;20035;-88
2023/12/10 09:45:47;;;;;;;14.13;3.72;;;10.10;99.90;;;;;;5096804;28;20063;-88
2023/12/10 09:48:13;;;;;;;13.85;2.30;;;10.20;99.90;;;;;;5095182;28;20101;-88
2023/12/10 09:50:40;;;;;;;8.55;1.77;;;10.20;99.90;;;;;;5096530;28;20039;-87
2023/12/10 09:53:07;;;;;;;15.70;2.63;;;10.20;99.90;;;;;;5095669;28;20035;-87
2023/12/10 09:55:32;;;;;;;16.67;1.95;;;10.20;99.90;;;;;;5095191;28;20074;-88
2023/12/10 09:57:58;;;;;;;14.15;1.67;;;10.20;99.90;;;;;;5095733;28;20032;-88
2023/12/10 10:00:25;;;;;;;11.68;1.92;;;10.30;99.90;;;;;;5096172;28;20020;-88
2023/12/10 10:02:51;;;;;;;11.05;1.70;;;10.30;99.90;;;;;;5094878;28;20024;-87
2023/12/10 10:05:16;;;;;;;9.40;1.58;;;10.30;99.90;;;;;;5094787;28;20073;-88
2023/12/10 10:07:42;;;;;;;9.07;1.70;;;10.40;99.90;;;;;;5095282;28;20028;-88
2023/12/10 10:10:11;;;;;;;13.23;1.42;;;10.30;99.90;;;;;;5095243;28;20035;-87
2023/12/10 10:12:37;;;;;;;13.77;1.85;;;10.40;99.90;;;;;;5094786;28;20480;-87
2023/12/10 10:15:03;;;;;;;7.15;1.40;;;10.30;99.90;;;;;;5095045;28;20035;-88
2023/12/10 10:17:35;;;;;;;10.57;1.50;;;10.30;99.90;;;;;;5094955;28;20464;-88
2023/12/10 10:20:04;;;;;;;13.15;1.83;;;10.20;99.90;;;;;;5096276;28;20454;-84
2023/12/10 10:22:30;;;;;;;12.02;1.80;;;10.30;99.90;;;;;;5094418;28;20030;-86
2023/12/10 10:24:56;;;;;;;13.18;2.10;;;10.20;99.90;;;;;;5094889;28;20031;-86
2023/12/10 10:27:22;;;;;;;6.57;1.38;;;10.30;99.90;;;;;;5094360;28;20036;-86
2023/12/10 10:29:53;;;;;;;14.50;2.15;;;10.30;99.90;;;;;;5094846;28;20035;-87
2023/12/10 10:32:20;;;;;;;11.93;1.65;;;10.30;99.90;;;;;;5094347;28;20031;-87
2023/12/10 10:34:46;;;;;;;9.90;1.83;;;10.30;99.90;;;;;;5094669;28;20107;-87
2023/12/10 10:37:16;;;;;;;9.60;1.30;;;10.30;99.90;;;;;;5094424;28;20032;-88
2023/12/10 10:39:42;;;;;;;14.25;2.17;;;10.30;99.90;;;;;;5095753;28;20136;-85
2023/12/10 10:42:10;;;;;;;10.10;1.75;;;10.30;99.90;;;;;;5094686;28;20028;-86
2023/12/10 10:44:39;;;;;;;11.98;1.75;;;10.40;99.90;;;;;;5095038;28;20020;-88
2023/12/10 10:47:08;;;;;;;11.90;1.90;;;10.40;99.90;;;;;;5094308;28;20020;-85
2023/12/10 10:49:37;;;;;;;12.00;1.58;;;10.50;99.90;;;;;;5093960;28;20028;-87
2023/12/10 10:52:11;;;;;;;11.35;1.60;;;10.60;99.90;;;;;;5095241;28;20031;-86
2023/12/10 10:54:37;;;;;;;9.80;1.33;;;10.70;99.90;;;;;;5094915;28;20096;-86
2023/12/10 10:57:03;;;;;;;15.93;2.60;;;10.70;99.90;;;;;;5093826;28;20028;-86
2023/12/10 10:59:33;;;;;;;12.50;1.90;;;10.70;99.90;;;;;;5093716;28;20111;-88
2023/12/10 11:02:07;;;;;;;10.73;1.55;;;10.70;99.90;;;;;;5094356;28;20028;-86
2023/12/10 11:04:36;;;;;;;9.25;1.42;;;10.70;99.90;;;;;;5094019;28;20059;-89
2023/12/10 11:07:03;;;;;;;10.25;1.58;;;10.70;99.90;;;;;;5094161;28;20031;-87
2023/12/10 11:09:30;;;;;;;9.73;1.77;;;10.70;99.90;;;;;;5093598;28;20496;-86
2023/12/10 11:11:57;;;;;;;10.27;1.73;;;10.70;99.90;;;;;;5095103;28;20076;-86
2023/12/10 11:14:23;;;;;;;9.98;1.42;;;10.80;99.90;;;;;;5093837;28;20032;-87
2023/12/10 11:17:04;;;;;;;13.50;1.95;;;10.80;99.90;;;;;;5094869;28;20024;-86
2023/12/10 11:19:31;;;;;;;11.55;1.45;;;10.90;99.90;;;;;;5094651;28;20020;-89
2023/12/10 11:21:56;;;;;;;10.82;2.03;;;10.90;99.90;;;;;;5094795;28;20024;-88
2023/12/10 11:24:23;;;;;;;14.35;1.90;;;10.90;99.90;;;;;;5093179;28;20070;-90
2023/12/10 11:26:49;;;;;;;9.18;1.65;;;10.90;99.90;;;;;;5093932;28;20444;-86
2023/12/10 11:29:15;;;;;;;8.10;2.10;;;10.90;99.90;;;;;;5093720;28;20384;-88
2023/12/10 11:31:43;;;;;;;8.20;1.40;;;10.90;99.90;;;;;;5093825;28;20062;-89
2023/12/10 11:34:09;;;;;;;11.45;1.70;;;10.90;99.90;;;;;;5093557;28;20063;-87
2023/12/10 11:36:35;;;;;;;8.65;1.60;;;10.90;99.90;;;;;;5093174;28;20463;-88
2023/12/10 11:39:00;;;;;;;8.15;1.17;;;10.90;99.90;;;;;;5093313;28;20354;-89
2023/12/10 11:41:26;;;;;;;10.32;1.65;;;10.80;99.90;;;;;;5093021;28;20032;-87
2023/12/10 11:43:52;;;;;;;9.10;1.85;;;10.80;99.90;;;;;;5094643;28;20036;-88
2023/12/10 11:46:19;;;;;;;26.67;2.22;;;10.80;99.90;;;;;;5094074;28;20077;-88
2023/12/10 11:48:45;;;;;;;10.25;1.70;;;10.80;99.90;;;;;;5094555;28;20067;-86
2023/12/10 11:51:11;;;;;;;7.68;1.55;;;10.80;99.90;;;;;;5093514;28;20063;-89
2023/12/10 11:53:37;;;;;;;13.25;1.65;;;10.70;99.90;;;;;;5093865;28;20028;-89
2023/12/10 11:56:03;;;;;;;8.00;1.30;;;10.70;99.90;;;;;;5093333;28;20111;-89
2023/12/10 11:58:31;;;;;;;9.85;1.50;;;10.70;99.90;;;;;;5092741;28;20128;-89
2023/12/10 12:00:59;;;;;;;11.73;1.65;;;10.70;99.90;;;;;;5093097;28;20066;-88
2023/12/10 12:03:25;;;;;;;8.98;1.50;;;10.70;99.90;;;;;;5092633;28;20076;-89
2023/12/10 12:05:52;;;;;;;12.13;2.53;;;10.70;99.90;;;;;;5094115;28;20016;-89
2023/12/10 12:08:18;;;;;;;9.38;2.10;;;10.70;99.90;;;;;;5093073;28;20169;-88
2023/12/10 12:10:44;;;;;;;9.75;1.67;;;10.70;99.90;;;;;;5094248;28;20103;-89
2023/12/10 12:13:10;;;;;;;15.93;2.20;;;10.70;99.90;;;;;;5092758;28;20055;-89
2023/12/10 12:15:35;;;;;;;8.52;1.55;;;10.70;99.90;;;;;;5092677;28;20032;-88
2023/12/10 12:18:02;;;;;;;9.70;1.42;;;10.70;99.90;;;;;;5093220;28;20039;-89
2023/12/10 12:20:29;;;;;;;11.30;1.85;;;10.70;99.90;;;;;;5092658;28;20111;-89
2023/12/10 12:22:55;;;;;;;10.10;1.60;;;10.70;99.90;;;;;;5092866;28;20024;-89
2023/12/10 12:25:24;;;;;;;8.85;2.03;;;10.70;99.90;;;;;;5093283;28;20050;-89
2023/12/10 12:27:49;;;;;;;12.63;1.95;;;10.70;99.90;;;;;;5094719;28;20028;-89
2023/12/10 12:30:18;;;;;;;9.07;1.52;;;10.70;99.90;;;;;;5093953;28;20032;-91
2023/12/10 12:32:44;;;;;;;4.60;1.20;;;10.70;99.90;;;;;;5092869;28;20025;-90
2023/12/10 12:35:10;;;;;;;11.38;1.42;;;10.70;99.90;;;;;;5092957;28;20042;-90
2023/12/10 12:37:36;;;;;;;8.88;2.05;;;10.70;99.90;;;;;;5092392;28;20101;-89
2023/12/10 12:40:02;;;;;;;5.15;1.27;;;10.70;99.90;;;;;;5092820;28;20089;-89